sensor_id;sensor_type;location;lat;lon;timestamp;temperature;humidity
4820;DHT22;2424;49.696;6.630;2022-10-24T00:03:42;17.60;99.90
4820;DHT22;2424;49.696;6.630;2022-10-24T00:09:06;17.50;99.90
4820;DHT22;2424;49.696;6.630;2022-10-24T00:14:28;17.60;99.90
4820;DHT22;2424;49.696;6.630;2022-10-24T00:19:50;17.60;99.90
4820;DHT22;2424;49.696;6.630;2022-10-24T00:25:15;17.50;99.90
4820;DHT22;2424;49.696;6.630;2022-10-24T00:30:37;17.60;99.90
4820;DHT22;2424;49.696;6.630;2022-10-24T00:36:00;17.60;99.90
4820;DHT22;2424;49.696;6.630;2022-10-24T00:41:26;17.60;99.90
4820;DHT22;2424;49.696;6.630;2022-10-24T00:46:53;17.60;99.90
4820;DHT22;2424;49.696;6.630;2022-10-24T00:52:18;17.40;99.90
4820;DHT22;2424;49.696;6.630;2022-10-24T00:57:45;17.40;99.90
4820;DHT22;2424;49.696;6.630;2022-10-24T01:03:09;17.40;99.90
4820;DHT22;2424;49.696;6.630;2022-10-24T01:08:39;17.30;99.90
4820;DHT22;2424;49.696;6.630;2022-10-24T01:14:14;17.40;99.90
4820;DHT22;2424;49.696;6.630;2022-10-24T01:20:07;17.30;99.90
4820;DHT22;2424;49.696;6.630;2022-10-24T01:25:37;17.40;99.90
4820;DHT22;2424;49.696;6.630;2022-10-24T01:31:09;17.40;99.90
4820;DHT22;2424;49.696;6.630;2022-10-24T01:36:36;17.30;99.90
4820;DHT22;2424;49.696;6.630;2022-10-24T01:42:01;17.10;99.90
4820;DHT22;2424;49.696;6.630;2022-10-24T01:47:28;17.10;99.90
4820;DHT22;2424;49.696;6.630;2022-10-24T01:52:54;17.10;99.90
4820;DHT22;2424;49.696;6.630;2022-10-24T01:58:17;17.10;99.90
4820;DHT22;2424;49.696;6.630;2022-10-24T02:03:44;17.10;99.90
4820;DHT22;2424;49.696;6.630;2022-10-24T02:09:10;17.10;99.90
4820;DHT22;2424;49.696;6.630;2022-10-24T02:14:37;17.00;99.90
4820;DHT22;2424;49.696;6.630;2022-10-24T02:20:03;17.00;99.90
4820;DHT22;2424;49.696;6.630;2022-10-24T02:25:29;16.80;99.90
4820;DHT22;2424;49.696;6.630;2022-10-24T02:31:00;16.80;99.90
4820;DHT22;2424;49.696;6.630;2022-10-24T02:36:26;17.00;99.90
4820;DHT22;2424;49.696;6.630;2022-10-24T02:41:50;16.90;99.90
4820;DHT22;2424;49.696;6.630;2022-10-24T02:47:17;16.80;99.90
4820;DHT22;2424;49.696;6.630;2022-10-24T02:52:42;16.80;99.90
4820;DHT22;2424;49.696;6.630;2022-10-24T02:58:06;16.80;99.90
4820;DHT22;2424;49.696;6.630;2022-10-24T03:03:28;16.80;99.90
4820;DHT22;2424;49.696;6.630;2022-10-24T03:08:52;16.70;99.90
4820;DHT22;2424;49.696;6.630;2022-10-24T03:14:14;16.70;99.90
4820;DHT22;2424;49.696;6.630;2022-10-24T03:19:36;16.60;99.90
4820;DHT22;2424;49.696;6.630;2022-10-24T03:24:59;16.60;99.90
4820;DHT22;2424;49.696;6.630;2022-10-24T03:30:22;16.80;99.90
4820;DHT22;2424;49.696;6.630;2022-10-24T03:35:47;16.90;99.90
4820;DHT22;2424;49.696;6.630;2022-10-24T03:41:13;17.00;99.90
4820;DHT22;2424;49.696;6.630;2022-10-24T03:46:34;16.80;99.90
4820;DHT22;2424;49.696;6.630;2022-10-24T03:51:57;16.90;99.90
4820;DHT22;2424;49.696;6.630;2022-10-24T03:57:20;16.90;99.90
4820;DHT22;2424;49.696;6.630;2022-10-24T04:02:42;17.00;99.90
4820;DHT22;2424;49.696;6.630;2022-10-24T04:08:05;16.90;99.90
4820;DHT22;2424;49.696;6.630;2022-10-24T04:13:28;16.80;99.90
4820;DHT22;2424;49.696;6.630;2022-10-24T04:18:50;16.90;99.90
4820;DHT22;2424;49.696;6.630;2022-10-24T04:24:12;17.10;99.90
4820;DHT22;2424;49.696;6.630;2022-10-24T04:29:38;17.10;99.90
4820;DHT22;2424;49.696;6.630;2022-10-24T04:35:00;17.00;99.90
4820;DHT22;2424;49.696;6.630;2022-10-24T04:40:22;16.90;99.90
4820;DHT22;2424;49.696;6.630;2022-10-24T04:45:45;17.00;99.90
4820;DHT22;2424;49.696;6.630;2022-10-24T04:51:07;16.90;99.90
4820;DHT22;2424;49.696;6.630;2022-10-24T04:56:29;16.80;99.90
4820;DHT22;2424;49.696;6.630;2022-10-24T05:01:53;16.70;99.90
4820;DHT22;2424;49.696;6.630;2022-10-24T05:07:15;16.70;99.90
4820;DHT22;2424;49.696;6.630;2022-10-24T05:12:40;16.60;99.90
4820;DHT22;2424;49.696;6.630;2022-10-24T05:18:05;16.60;99.90
4820;DHT22;2424;49.696;6.630;2022-10-24T05:23:27;16.50;99.90
4820;DHT22;2424;49.696;6.630;2022-10-24T05:28:49;16.40;99.90
4820;DHT22;2424;49.696;6.630;2022-10-24T05:34:13;16.50;99.90
4820;DHT22;2424;49.696;6.630;2022-10-24T05:39:35;16.40;99.90
4820;DHT22;2424;49.696;6.630;2022-10-24T05:44:57;16.40;99.90
4820;DHT22;2424;49.696;6.630;2022-10-24T05:50:21;16.40;99.90
4820;DHT22;2424;49.696;6.630;2022-10-24T05:55:44;16.40;99.90
4820;DHT22;2424;49.696;6.630;2022-10-24T06:01:06;16.30;99.90
4820;DHT22;2424;49.696;6.630;2022-10-24T06:06:29;16.30;99.90
4820;DHT22;2424;49.696;6.630;2022-10-24T06:11:52;16.30;99.90
4820;DHT22;2424;49.696;6.630;2022-10-24T06:17:14;16.20;99.90
4820;DHT22;2424;49.696;6.630;2022-10-24T06:22:37;16.10;99.90
4820;DHT22;2424;49.696;6.630;2022-10-24T06:27:59;16.10;99.90
4820;DHT22;2424;49.696;6.630;2022-10-24T06:33:21;16.10;99.90
4820;DHT22;2424;49.696;6.630;2022-10-24T06:38:44;16.10;99.90
4820;DHT22;2424;49.696;6.630;2022-10-24T06:44:06;16.10;99.90
4820;DHT22;2424;49.696;6.630;2022-10-24T06:49:28;16.10;99.90
4820;DHT22;2424;49.696;6.630;2022-10-24T06:54:54;16.00;99.90
4820;DHT22;2424;49.696;6.630;2022-10-24T07:00:17;16.10;99.90
4820;DHT22;2424;49.696;6.630;2022-10-24T07:05:40;16.10;99.90
4820;DHT22;2424;49.696;6.630;2022-10-24T07:11:04;16.20;99.90
4820;DHT22;2424;49.696;6.630;2022-10-24T07:16:29;16.10;99.90
4820;DHT22;2424;49.696;6.630;2022-10-24T07:21:51;16.20;99.90
4820;DHT22;2424;49.696;6.630;2022-10-24T07:27:14;16.10;99.90
4820;DHT22;2424;49.696;6.630;2022-10-24T07:32:37;16.20;99.90
4820;DHT22;2424;49.696;6.630;2022-10-24T07:37:59;16.20;99.90
4820;DHT22;2424;49.696;6.630;2022-10-24T07:43:23;16.30;99.90
4820;DHT22;2424;49.696;6.630;2022-10-24T07:48:47;16.30;99.90
4820;DHT22;2424;49.696;6.630;2022-10-24T07:54:09;16.50;99.90
4820;DHT22;2424;49.696;6.630;2022-10-24T07:59:32;16.60;99.90
4820;DHT22;2424;49.696;6.630;2022-10-24T08:04:54;16.60;99.90
4820;DHT22;2424;49.696;6.630;2022-10-24T08:10:16;16.60;99.90
4820;DHT22;2424;49.696;6.630;2022-10-24T08:15:40;16.60;99.90
4820;DHT22;2424;49.696;6.630;2022-10-24T08:21:03;16.60;99.90
4820;DHT22;2424;49.696;6.630;2022-10-24T08:26:26;16.60;99.90
4820;DHT22;2424;49.696;6.630;2022-10-24T08:31:54;16.50;99.90
4820;DHT22;2424;49.696;6.630;2022-10-24T08:37:17;16.60;99.90
4820;DHT22;2424;49.696;6.630;2022-10-24T08:42:39;16.70;99.90
4820;DHT22;2424;49.696;6.630;2022-10-24T08:48:06;16.80;99.90
4820;DHT22;2424;49.696;6.630;2022-10-24T08:53:30;16.90;99.90
4820;DHT22;2424;49.696;6.630;2022-10-24T08:58:53;16.80;99.90
4820;DHT22;2424;49.696;6.630;2022-10-24T09:04:22;16.90;99.90
4820;DHT22;2424;49.696;6.630;2022-10-24T09:09:48;16.90;99.90
4820;DHT22;2424;49.696;6.630;2022-10-24T09:15:14;16.90;99.90
4820;DHT22;2424;49.696;6.630;2022-10-24T09:20:41;17.00;99.90
4820;DHT22;2424;49.696;6.630;2022-10-24T09:26:05;17.10;99.90
4820;DHT22;2424;49.696;6.630;2022-10-24T09:31:28;17.20;99.90
4820;DHT22;2424;49.696;6.630;2022-10-24T09:36:52;17.10;99.90
4820;DHT22;2424;49.696;6.630;2022-10-24T09:42:16;17.00;99.90
4820;DHT22;2424;49.696;6.630;2022-10-24T09:47:43;17.00;99.90
4820;DHT22;2424;49.696;6.630;2022-10-24T09:53:22;17.00;99.90
4820;DHT22;2424;49.696;6.630;2022-10-24T09:58:45;17.10;99.90
4820;DHT22;2424;49.696;6.630;2022-10-24T10:04:14;17.20;99.90
4820;DHT22;2424;49.696;6.630;2022-10-24T10:09:47;17.30;99.90
4820;DHT22;2424;49.696;6.630;2022-10-24T10:15:23;17.20;99.90
4820;DHT22;2424;49.696;6.630;2022-10-24T10:20:58;17.20;99.90
4820;DHT22;2424;49.696;6.630;2022-10-24T10:26:24;17.10;99.90
4820;DHT22;2424;49.696;6.630;2022-10-24T10:31:49;17.10;99.90
4820;DHT22;2424;49.696;6.630;2022-10-24T10:37:24;17.30;99.90
4820;DHT22;2424;49.696;6.630;2022-10-24T10:43:09;17.60;99.90
4820;DHT22;2424;49.696;6.630;2022-10-24T10:48:44;17.70;99.90
4820;DHT22;2424;49.696;6.630;2022-10-24T10:54:18;18.10;99.90
4820;DHT22;2424;49.696;6.630;2022-10-24T10:59:51;18.20;99.90
4820;DHT22;2424;49.696;6.630;2022-10-24T11:05:31;18.00;99.90
4820;DHT22;2424;49.696;6.630;2022-10-24T11:10:59;18.10;99.90
4820;DHT22;2424;49.696;6.630;2022-10-24T11:16:27;18.20;99.90
4820;DHT22;2424;49.696;6.630;2022-10-24T11:21:51;18.20;99.90
4820;DHT22;2424;49.696;6.630;2022-10-24T11:27:18;18.50;99.90
4820;DHT22;2424;49.696;6.630;2022-10-24T11:32:48;18.10;99.90
4820;DHT22;2424;49.696;6.630;2022-10-24T11:38:17;18.10;99.90
4820;DHT22;2424;49.696;6.630;2022-10-24T11:43:41;17.80;99.90
4820;DHT22;2424;49.696;6.630;2022-10-24T11:49:14;17.60;99.90
4820;DHT22;2424;49.696;6.630;2022-10-24T11:54:41;17.80;99.90
4820;DHT22;2424;49.696;6.630;2022-10-24T12:00:05;17.90;99.90
4820;DHT22;2424;49.696;6.630;2022-10-24T12:05:50;17.90;99.90
4820;DHT22;2424;49.696;6.630;2022-10-24T12:11:27;18.50;99.90
4820;DHT22;2424;49.696;6.630;2022-10-24T12:17:11;18.50;99.90
4820;DHT22;2424;49.696;6.630;2022-10-24T12:22:41;18.90;99.90
4820;DHT22;2424;49.696;6.630;2022-10-24T12:28:05;18.40;99.90
4820;DHT22;2424;49.696;6.630;2022-10-24T12:33:29;18.10;99.90
4820;DHT22;2424;49.696;6.630;2022-10-24T12:39:02;17.90;99.90
4820;DHT22;2424;49.696;6.630;2022-10-24T12:44:37;17.90;99.90
4820;DHT22;2424;49.696;6.630;2022-10-24T12:56:17;17.80;99.90
4820;DHT22;2424;49.696;6.630;2022-10-24T13:01:41;17.80;99.90
4820;DHT22;2424;49.696;6.630;2022-10-24T13:07:27;17.90;99.90
4820;DHT22;2424;49.696;6.630;2022-10-24T13:13:02;17.90;99.90
4820;DHT22;2424;49.696;6.630;2022-10-24T13:18:42;17.90;99.90
4820;DHT22;2424;49.696;6.630;2022-10-24T13:24:11;17.90;99.90
4820;DHT22;2424;49.696;6.630;2022-10-24T13:30:03;18.00;99.90
4820;DHT22;2424;49.696;6.630;2022-10-24T13:35:30;17.90;99.90
4820;DHT22;2424;49.696;6.630;2022-10-24T13:40:52;18.00;99.90
4820;DHT22;2424;49.696;6.630;2022-10-24T13:46:24;18.20;99.90
4820;DHT22;2424;49.696;6.630;2022-10-24T13:51:51;18.30;99.90
4820;DHT22;2424;49.696;6.630;2022-10-24T13:57:31;18.40;99.90
4820;DHT22;2424;49.696;6.630;2022-10-24T14:02:57;18.40;99.90
4820;DHT22;2424;49.696;6.630;2022-10-24T14:08:25;18.20;99.90
4820;DHT22;2424;49.696;6.630;2022-10-24T14:13:51;17.90;99.90
4820;DHT22;2424;49.696;6.630;2022-10-24T14:19:22;17.70;99.90
4820;DHT22;2424;49.696;6.630;2022-10-24T14:24:47;17.60;99.90
4820;DHT22;2424;49.696;6.630;2022-10-24T14:30:17;17.50;99.90
4820;DHT22;2424;49.696;6.630;2022-10-24T14:35:41;17.40;99.90
4820;DHT22;2424;49.696;6.630;2022-10-24T14:41:03;17.40;99.90
4820;DHT22;2424;49.696;6.630;2022-10-24T14:46:33;17.30;99.90
4820;DHT22;2424;49.696;6.630;2022-10-24T14:51:59;17.30;99.90
4820;DHT22;2424;49.696;6.630;2022-10-24T14:57:21;17.30;99.90
4820;DHT22;2424;49.696;6.630;2022-10-24T15:02:43;17.30;99.90
4820;DHT22;2424;49.696;6.630;2022-10-24T15:08:32;17.20;99.90
4820;DHT22;2424;49.696;6.630;2022-10-24T15:13:55;17.20;99.90
4820;DHT22;2424;49.696;6.630;2022-10-24T15:19:17;17.30;99.90
4820;DHT22;2424;49.696;6.630;2022-10-24T15:24:42;17.20;99.90
4820;DHT22;2424;49.696;6.630;2022-10-24T15:30:05;17.20;99.90
4820;DHT22;2424;49.696;6.630;2022-10-24T15:35:34;17.30;99.90
4820;DHT22;2424;49.696;6.630;2022-10-24T15:40:58;17.30;99.90
4820;DHT22;2424;49.696;6.630;2022-10-24T15:46:22;17.40;99.90
4820;DHT22;2424;49.696;6.630;2022-10-24T15:51:45;17.40;99.90
4820;DHT22;2424;49.696;6.630;2022-10-24T15:57:11;17.30;99.90
4820;DHT22;2424;49.696;6.630;2022-10-24T16:02:33;17.20;99.90
4820;DHT22;2424;49.696;6.630;2022-10-24T16:07:55;17.00;99.90
4820;DHT22;2424;49.696;6.630;2022-10-24T16:13:20;16.90;99.90
4820;DHT22;2424;49.696;6.630;2022-10-24T16:18:42;16.70;99.90
4820;DHT22;2424;49.696;6.630;2022-10-24T16:24:08;16.60;99.90
4820;DHT22;2424;49.696;6.630;2022-10-24T16:29:33;16.60;99.90
4820;DHT22;2424;49.696;6.630;2022-10-24T16:34:55;16.50;99.90
4820;DHT22;2424;49.696;6.630;2022-10-24T16:40:17;16.40;99.90
4820;DHT22;2424;49.696;6.630;2022-10-24T16:45:42;16.40;99.90
4820;DHT22;2424;49.696;6.630;2022-10-24T16:51:08;16.30;99.90
4820;DHT22;2424;49.696;6.630;2022-10-24T16:56:30;16.30;99.90
4820;DHT22;2424;49.696;6.630;2022-10-24T17:01:54;16.40;99.90
4820;DHT22;2424;49.696;6.630;2022-10-24T17:07:16;16.40;99.90
4820;DHT22;2424;49.696;6.630;2022-10-24T17:12:39;16.30;99.90
4820;DHT22;2424;49.696;6.630;2022-10-24T17:18:04;16.30;99.90
4820;DHT22;2424;49.696;6.630;2022-10-24T17:23:27;16.30;99.90
4820;DHT22;2424;49.696;6.630;2022-10-24T17:28:51;16.20;99.90
4820;DHT22;2424;49.696;6.630;2022-10-24T17:34:15;16.10;99.90
4820;DHT22;2424;49.696;6.630;2022-10-24T17:39:41;16.20;99.90
4820;DHT22;2424;49.696;6.630;2022-10-24T17:45:05;16.10;99.90
4820;DHT22;2424;49.696;6.630;2022-10-24T17:50:29;16.10;99.90
4820;DHT22;2424;49.696;6.630;2022-10-24T17:55:51;16.10;99.90
4820;DHT22;2424;49.696;6.630;2022-10-24T18:01:13;16.00;99.90
4820;DHT22;2424;49.696;6.630;2022-10-24T18:06:38;16.10;99.90
4820;DHT22;2424;49.696;6.630;2022-10-24T18:11:59;16.00;99.90
4820;DHT22;2424;49.696;6.630;2022-10-24T18:17:24;16.00;99.90
4820;DHT22;2424;49.696;6.630;2022-10-24T18:22:47;15.90;99.90
4820;DHT22;2424;49.696;6.630;2022-10-24T18:28:09;15.90;99.90
4820;DHT22;2424;49.696;6.630;2022-10-24T18:33:32;15.90;99.90
4820;DHT22;2424;49.696;6.630;2022-10-24T18:38:58;15.80;99.90
4820;DHT22;2424;49.696;6.630;2022-10-24T18:44:24;15.80;99.90
4820;DHT22;2424;49.696;6.630;2022-10-24T18:49:47;15.70;99.90
4820;DHT22;2424;49.696;6.630;2022-10-24T18:55:17;15.80;99.90
4820;DHT22;2424;49.696;6.630;2022-10-24T19:00:39;15.80;99.90
4820;DHT22;2424;49.696;6.630;2022-10-24T19:06:09;15.70;99.90
4820;DHT22;2424;49.696;6.630;2022-10-24T19:11:38;15.60;99.90
4820;DHT22;2424;49.696;6.630;2022-10-24T19:17:02;15.60;99.90
4820;DHT22;2424;49.696;6.630;2022-10-24T19:22:26;15.50;99.90
4820;DHT22;2424;49.696;6.630;2022-10-24T19:27:50;15.50;99.90
4820;DHT22;2424;49.696;6.630;2022-10-24T19:33:13;15.40;99.90
4820;DHT22;2424;49.696;6.630;2022-10-24T19:38:36;15.40;99.90
4820;DHT22;2424;49.696;6.630;2022-10-24T19:43:59;15.30;99.90
4820;DHT22;2424;49.696;6.630;2022-10-24T19:49:22;15.30;99.90
4820;DHT22;2424;49.696;6.630;2022-10-24T19:54:49;15.20;99.90
4820;DHT22;2424;49.696;6.630;2022-10-24T20:00:14;15.10;99.90
4820;DHT22;2424;49.696;6.630;2022-10-24T20:05:36;15.10;99.90
4820;DHT22;2424;49.696;6.630;2022-10-24T20:10:58;15.10;99.90
4820;DHT22;2424;49.696;6.630;2022-10-24T20:16:21;15.10;99.90
4820;DHT22;2424;49.696;6.630;2022-10-24T20:21:43;15.00;99.90
4820;DHT22;2424;49.696;6.630;2022-10-24T20:27:05;15.00;99.90
4820;DHT22;2424;49.696;6.630;2022-10-24T20:32:28;14.90;99.90
4820;DHT22;2424;49.696;6.630;2022-10-24T20:37:50;14.90;99.90
4820;DHT22;2424;49.696;6.630;2022-10-24T20:43:14;14.90;99.90
4820;DHT22;2424;49.696;6.630;2022-10-24T20:48:38;14.90;99.90
4820;DHT22;2424;49.696;6.630;2022-10-24T20:54:00;14.90;99.90
4820;DHT22;2424;49.696;6.630;2022-10-24T20:59:22;14.90;99.90
4820;DHT22;2424;49.696;6.630;2022-10-24T21:04:46;14.90;99.90
4820;DHT22;2424;49.696;6.630;2022-10-24T21:10:08;14.80;99.90
4820;DHT22;2424;49.696;6.630;2022-10-24T21:15:30;14.70;99.90
4820;DHT22;2424;49.696;6.630;2022-10-24T21:20:53;14.70;99.90
4820;DHT22;2424;49.696;6.630;2022-10-24T21:26:15;14.60;99.90
4820;DHT22;2424;49.696;6.630;2022-10-24T21:31:49;14.60;99.90
4820;DHT22;2424;49.696;6.630;2022-10-24T21:37:14;14.50;99.90
4820;DHT22;2424;49.696;6.630;2022-10-24T21:42:36;14.40;99.90
4820;DHT22;2424;49.696;6.630;2022-10-24T21:47:59;14.50;99.90
4820;DHT22;2424;49.696;6.630;2022-10-24T21:53:23;14.50;99.90
4820;DHT22;2424;49.696;6.630;2022-10-24T21:58:46;14.40;99.90
4820;DHT22;2424;49.696;6.630;2022-10-24T22:04:10;14.30;99.90
4820;DHT22;2424;49.696;6.630;2022-10-24T22:09:36;14.30;99.90
4820;DHT22;2424;49.696;6.630;2022-10-24T22:14:59;14.20;99.90
4820;DHT22;2424;49.696;6.630;2022-10-24T22:20:21;14.10;99.90
4820;DHT22;2424;49.696;6.630;2022-10-24T22:25:45;14.10;99.90
4820;DHT22;2424;49.696;6.630;2022-10-24T22:31:08;14.10;99.90
4820;DHT22;2424;49.696;6.630;2022-10-24T22:36:41;14.10;99.90
4820;DHT22;2424;49.696;6.630;2022-10-24T22:42:07;14.10;99.90
4820;DHT22;2424;49.696;6.630;2022-10-24T22:47:42;14.00;99.90
4820;DHT22;2424;49.696;6.630;2022-10-24T22:53:11;13.90;99.90
4820;DHT22;2424;49.696;6.630;2022-10-24T22:58:35;13.90;99.90
4820;DHT22;2424;49.696;6.630;2022-10-24T23:04:06;13.90;99.90
4820;DHT22;2424;49.696;6.630;2022-10-24T23:09:31;13.90;99.90
4820;DHT22;2424;49.696;6.630;2022-10-24T23:14:55;13.90;99.90
4820;DHT22;2424;49.696;6.630;2022-10-24T23:25:28;13.80;99.90
4820;DHT22;2424;49.696;6.630;2022-10-24T23:30:53;13.80;99.90
4820;DHT22;2424;49.696;6.630;2022-10-24T23:36:19;13.80;99.90
4820;DHT22;2424;49.696;6.630;2022-10-24T23:41:42;13.90;99.90
4820;DHT22;2424;49.696;6.630;2022-10-24T23:47:13;13.90;99.90
4820;DHT22;2424;49.696;6.630;2022-10-24T23:52:57;13.80;99.90
4820;DHT22;2424;49.696;6.630;2022-10-24T23:58:23;13.80;99.90
